Terminal Aerodrome Forecast
Issued by NWS

Home | Current Version | Previous Version | Text Only | Print | Product List | Glossary On
Versions: 1 2 3 4 5 6 7 8 9 10 11 12 13 14 15 16 17 18 19 20 21 22 23 24
000
FTUS43 KSGF 252337
TAFJLN
TAF
KJLN 252337Z 2600/2624 18010KT P6SM BKN040
     FM260100 18010KT P6SM SCT035
     FM260900 19009KT 6SM BR BKN015
     FM261500 19012KT P6SM SCT020 BKN040 PROB30 2618/2624 -TSRA
      BKN040CB=

USA.gov is the U.S. government's official web portal to all federal, state and local government web resources and services.